IOLK1: Grand River, Iola

Data processed at Wed May 22 2019 23:50


All information presented herein is the property of the government of the United States of America and may be revised or deleted at any time without prior notice.
Dissemination of this information without the expressed written consent of the Public Affairs Office, Tulsa District U.S. Army Corps of Engineers is strictly prohibited.
These data are gathered electronically and, as presented, have not undergone any form of quality control. These data are not guaranteed to be valid or correct.
Go to home page.
Go to station list.
Go to home page.

Upstream stations:

Downstream station:
Previous Day
Next Day
Current Day
    
SHEF ID:       IOLK1     NEOSHO RIVER NEAR IOLA
STATION TYPE:  
Regulating: Stage =    15.00, Flow =    21485

               PRECIP     STAGE  RIV-FLOW  AIR-TEMP  BAT-LOAD
                   in        ft       cfs         F      volt
              Ccp-Rev   Ccp-Rev   Ccp-Rev   Ccp-Rev   Ccp-Rev
(US/Central)
05/22 00:00      0.00     20.51     32453     65.79     12.57
05/22 01:00      0.00     20.51     32453     63.98     12.49
05/22 02:00      0.00     20.49     32416     62.16     12.49
05/22 03:00      0.00     20.47     32379     61.66     12.49
05/22 04:00      0.00     20.46     32361     59.40     12.41
05/22 05:00      0.00     20.44     32324     57.55     12.41
05/22 06:00      0.00     20.43     32305     55.98     12.41
05/22 07:00      0.00     20.41     32268     55.89     12.41
05/22 08:00      0.00     20.39     32231     57.62     12.73
05/22 09:00      0.00     20.34     32138     59.75     13.05
05/22 10:00      0.00     20.31     32083     60.99     12.97
05/22 11:00      0.00     20.26     31990     63.18     13.05
05/22 12:00      0.00     20.23     31934     66.35     13.21
05/22 13:00      0.00     20.20     31878     69.72     13.13
05/22 14:00      0.00     20.18     31841     72.16     13.13
05/22 15:00      0.00     20.15     31785     71.51     13.13
05/22 16:00      0.00     20.12     31729     73.94     12.97
05/22 17:00      0.00     20.09     31673     70.85     12.97
05/22 18:00      0.00     20.07     31636     71.04     12.89
05/22 19:00      0.00     20.04     31580     68.29     12.73
05/22 20:00      0.00     20.02     31542     67.55     12.73
05/22 21:00      0.09     20.00     31505     67.39     12.73
05/22 22:00      0.02     19.95     31411     65.10     12.65
05/22 23:00      0.00     19.96     31430     65.07     12.65